sensor_id;sensor_type;location;lat;lon;timestamp;P1;durP1;ratioP1;P2;durP2;ratioP2
13171;SDS011;6651;53.200;10.432;2022-12-18T00:01:43;18.65;;;14.07;;
13171;SDS011;6651;53.200;10.432;2022-12-18T00:04:14;21.33;;;14.68;;
13171;SDS011;6651;53.200;10.432;2022-12-18T00:06:44;23.23;;;15.23;;
13171;SDS011;6651;53.200;10.432;2022-12-18T00:09:10;25.77;;;15.30;;
13171;SDS011;6651;53.200;10.432;2022-12-18T00:11:36;21.42;;;15.32;;
13171;SDS011;6651;53.200;10.432;2022-12-18T00:14:01;19.98;;;14.98;;
13171;SDS011;6651;53.200;10.432;2022-12-18T00:16:28;21.58;;;15.07;;
13171;SDS011;6651;53.200;10.432;2022-12-18T00:18:56;21.20;;;14.52;;
13171;SDS011;6651;53.200;10.432;2022-12-18T00:21:23;19.63;;;14.60;;
13171;SDS011;6651;53.200;10.432;2022-12-18T00:23:49;23.83;;;15.15;;
13171;SDS011;6651;53.200;10.432;2022-12-18T00:26:18;20.40;;;14.95;;
13171;SDS011;6651;53.200;10.432;2022-12-18T00:28:45;20.65;;;15.57;;
13171;SDS011;6651;53.200;10.432;2022-12-18T00:31:15;23.50;;;16.35;;
13171;SDS011;6651;53.200;10.432;2022-12-18T00:33:42;21.77;;;16.25;;
13171;SDS011;6651;53.200;10.432;2022-12-18T00:36:16;20.67;;;15.88;;
13171;SDS011;6651;53.200;10.432;2022-12-18T00:38:43;21.02;;;15.32;;
13171;SDS011;6651;53.200;10.432;2022-12-18T00:41:09;20.50;;;14.25;;
13171;SDS011;6651;53.200;10.432;2022-12-18T00:43:37;21.50;;;14.60;;
13171;SDS011;6651;53.200;10.432;2022-12-18T00:46:03;20.40;;;15.88;;
13171;SDS011;6651;53.200;10.432;2022-12-18T00:48:29;21.73;;;15.57;;
13171;SDS011;6651;53.200;10.432;2022-12-18T00:50:55;22.60;;;16.20;;
13171;SDS011;6651;53.200;10.432;2022-12-18T00:53:21;23.85;;;16.20;;
13171;SDS011;6651;53.200;10.432;2022-12-18T00:55:47;21.45;;;15.73;;
13171;SDS011;6651;53.200;10.432;2022-12-18T00:58:13;22.98;;;16.42;;
13171;SDS011;6651;53.200;10.432;2022-12-18T01:00:40;20.38;;;15.65;;
13171;SDS011;6651;53.200;10.432;2022-12-18T01:03:06;21.42;;;15.30;;
13171;SDS011;6651;53.200;10.432;2022-12-18T01:05:32;21.25;;;15.23;;
13171;SDS011;6651;53.200;10.432;2022-12-18T01:07:58;21.38;;;15.35;;
13171;SDS011;6651;53.200;10.432;2022-12-18T01:10:24;21.17;;;15.10;;
13171;SDS011;6651;53.200;10.432;2022-12-18T01:12:50;18.13;;;14.25;;
13171;SDS011;6651;53.200;10.432;2022-12-18T01:15:16;21.20;;;15.30;;
13171;SDS011;6651;53.200;10.432;2022-12-18T01:17:42;22.10;;;15.05;;
13171;SDS011;6651;53.200;10.432;2022-12-18T01:20:09;20.52;;;15.02;;
13171;SDS011;6651;53.200;10.432;2022-12-18T01:22:36;20.63;;;14.63;;
13171;SDS011;6651;53.200;10.432;2022-12-18T01:25:03;21.15;;;14.05;;
13171;SDS011;6651;53.200;10.432;2022-12-18T01:27:29;19.65;;;14.52;;
13171;SDS011;6651;53.200;10.432;2022-12-18T01:29:55;22.67;;;14.07;;
13171;SDS011;6651;53.200;10.432;2022-12-18T01:32:21;23.08;;;15.10;;
13171;SDS011;6651;53.200;10.432;2022-12-18T01:34:47;20.13;;;14.30;;
13171;SDS011;6651;53.200;10.432;2022-12-18T01:37:13;19.45;;;14.05;;
13171;SDS011;6651;53.200;10.432;2022-12-18T01:39:38;21.52;;;15.32;;
13171;SDS011;6651;53.200;10.432;2022-12-18T01:42:08;21.45;;;15.77;;
13171;SDS011;6651;53.200;10.432;2022-12-18T01:52:48;21.05;;;15.77;;
13171;SDS011;6651;53.200;10.432;2022-12-18T01:55:19;22.50;;;15.25;;
13171;SDS011;6651;53.200;10.432;2022-12-18T01:57:49;20.95;;;14.93;;
13171;SDS011;6651;53.200;10.432;2022-12-18T02:00:19;21.35;;;15.07;;
13171;SDS011;6651;53.200;10.432;2022-12-18T02:02:45;20.48;;;16.15;;
13171;SDS011;6651;53.200;10.432;2022-12-18T02:05:12;22.80;;;15.73;;
13171;SDS011;6651;53.200;10.432;2022-12-18T02:08:01;21.88;;;15.70;;
13171;SDS011;6651;53.200;10.432;2022-12-18T02:10:38;22.08;;;15.68;;
13171;SDS011;6651;53.200;10.432;2022-12-18T02:13:25;22.95;;;15.95;;
13171;SDS011;6651;53.200;10.432;2022-12-18T02:16:19;23.08;;;16.10;;
13171;SDS011;6651;53.200;10.432;2022-12-18T02:19:08;23.48;;;17.30;;
13171;SDS011;6651;53.200;10.432;2022-12-18T02:24:31;27.67;;;18.75;;
13171;SDS011;6651;53.200;10.432;2022-12-18T02:27:07;26.60;;;17.83;;
13171;SDS011;6651;53.200;10.432;2022-12-18T02:29:38;29.60;;;17.63;;
13171;SDS011;6651;53.200;10.432;2022-12-18T02:32:20;27.33;;;18.77;;
13171;SDS011;6651;53.200;10.432;2022-12-18T02:34:50;27.25;;;18.35;;
13171;SDS011;6651;53.200;10.432;2022-12-18T02:37:18;25.33;;;17.42;;
13171;SDS011;6651;53.200;10.432;2022-12-18T02:39:46;26.40;;;18.63;;
13171;SDS011;6651;53.200;10.432;2022-12-18T02:42:13;29.67;;;19.60;;
13171;SDS011;6651;53.200;10.432;2022-12-18T02:44:44;28.73;;;19.00;;
13171;SDS011;6651;53.200;10.432;2022-12-18T02:47:13;25.38;;;18.85;;
13171;SDS011;6651;53.200;10.432;2022-12-18T02:52:38;27.90;;;19.48;;
13171;SDS011;6651;53.200;10.432;2022-12-18T02:57:46;28.67;;;19.25;;
13171;SDS011;6651;53.200;10.432;2022-12-18T03:05:43;32.42;;;18.98;;
13171;SDS011;6651;53.200;10.432;2022-12-18T03:08:23;27.55;;;19.23;;
13171;SDS011;6651;53.200;10.432;2022-12-18T03:11:00;31.70;;;19.17;;
13171;SDS011;6651;53.200;10.432;2022-12-18T03:14:04;26.23;;;17.95;;
13171;SDS011;6651;53.200;10.432;2022-12-18T03:16:32;28.38;;;18.38;;
13171;SDS011;6651;53.200;10.432;2022-12-18T03:19:01;26.27;;;18.50;;
13171;SDS011;6651;53.200;10.432;2022-12-18T03:21:42;26.48;;;18.48;;
13171;SDS011;6651;53.200;10.432;2022-12-18T03:24:12;24.98;;;17.73;;
13171;SDS011;6651;53.200;10.432;2022-12-18T03:26:40;26.65;;;18.75;;
13171;SDS011;6651;53.200;10.432;2022-12-18T03:29:16;25.15;;;17.92;;
13171;SDS011;6651;53.200;10.432;2022-12-18T03:31:52;27.30;;;18.48;;
13171;SDS011;6651;53.200;10.432;2022-12-18T03:34:22;28.80;;;19.63;;
13171;SDS011;6651;53.200;10.432;2022-12-18T03:36:51;26.02;;;18.58;;
13171;SDS011;6651;53.200;10.432;2022-12-18T03:39:17;28.77;;;18.98;;
13171;SDS011;6651;53.200;10.432;2022-12-18T03:41:45;25.60;;;18.45;;
13171;SDS011;6651;53.200;10.432;2022-12-18T03:52:20;25.13;;;18.50;;
13171;SDS011;6651;53.200;10.432;2022-12-18T03:54:52;31.02;;;19.13;;
13171;SDS011;6651;53.200;10.432;2022-12-18T03:57:25;26.85;;;19.17;;
13171;SDS011;6651;53.200;10.432;2022-12-18T03:59:56;26.98;;;18.83;;
13171;SDS011;6651;53.200;10.432;2022-12-18T04:02:28;27.55;;;19.23;;
13171;SDS011;6651;53.200;10.432;2022-12-18T04:04:56;28.23;;;19.40;;
13171;SDS011;6651;53.200;10.432;2022-12-18T04:07:25;25.95;;;18.65;;
13171;SDS011;6651;53.200;10.432;2022-12-18T04:09:52;28.65;;;19.02;;
13171;SDS011;6651;53.200;10.432;2022-12-18T04:12:21;29.15;;;18.33;;
13171;SDS011;6651;53.200;10.432;2022-12-18T04:14:51;27.00;;;19.00;;
13171;SDS011;6651;53.200;10.432;2022-12-18T04:17:17;27.67;;;18.75;;
13171;SDS011;6651;53.200;10.432;2022-12-18T04:19:43;27.75;;;18.73;;
13171;SDS011;6651;53.200;10.432;2022-12-18T04:22:09;27.25;;;18.38;;
13171;SDS011;6651;53.200;10.432;2022-12-18T04:24:35;28.02;;;18.80;;
13171;SDS011;6651;53.200;10.432;2022-12-18T04:27:01;25.58;;;18.52;;
13171;SDS011;6651;53.200;10.432;2022-12-18T04:29:27;28.02;;;18.40;;
13171;SDS011;6651;53.200;10.432;2022-12-18T04:31:53;26.88;;;18.90;;
13171;SDS011;6651;53.200;10.432;2022-12-18T04:34:19;28.10;;;19.15;;
13171;SDS011;6651;53.200;10.432;2022-12-18T04:36:45;28.63;;;19.08;;
13171;SDS011;6651;53.200;10.432;2022-12-18T04:39:11;26.80;;;19.67;;
13171;SDS011;6651;53.200;10.432;2022-12-18T04:41:36;26.63;;;18.38;;
13171;SDS011;6651;53.200;10.432;2022-12-18T04:44:02;28.23;;;19.50;;
13171;SDS011;6651;53.200;10.432;2022-12-18T04:46:28;24.75;;;17.33;;
13171;SDS011;6651;53.200;10.432;2022-12-18T04:48:54;28.90;;;18.50;;
13171;SDS011;6651;53.200;10.432;2022-12-18T04:51:19;26.52;;;18.55;;
13171;SDS011;6651;53.200;10.432;2022-12-18T04:56:13;26.48;;;17.80;;
13171;SDS011;6651;53.200;10.432;2022-12-18T04:58:41;27.95;;;18.58;;
13171;SDS011;6651;53.200;10.432;2022-12-18T05:01:08;27.58;;;18.15;;
13171;SDS011;6651;53.200;10.432;2022-12-18T05:03:35;26.40;;;17.50;;
13171;SDS011;6651;53.200;10.432;2022-12-18T05:06:01;26.83;;;18.45;;
13171;SDS011;6651;53.200;10.432;2022-12-18T05:08:28;28.05;;;17.83;;
13171;SDS011;6651;53.200;10.432;2022-12-18T05:11:00;26.98;;;18.45;;
13171;SDS011;6651;53.200;10.432;2022-12-18T05:13:27;26.75;;;17.45;;
13171;SDS011;6651;53.200;10.432;2022-12-18T05:15:54;27.20;;;17.85;;
13171;SDS011;6651;53.200;10.432;2022-12-18T05:18:20;27.00;;;18.05;;
13171;SDS011;6651;53.200;10.432;2022-12-18T05:20:46;25.55;;;18.50;;
13171;SDS011;6651;53.200;10.432;2022-12-18T05:23:12;24.35;;;17.02;;
13171;SDS011;6651;53.200;10.432;2022-12-18T05:25:38;25.08;;;17.05;;
13171;SDS011;6651;53.200;10.432;2022-12-18T05:28:03;26.65;;;18.25;;
13171;SDS011;6651;53.200;10.432;2022-12-18T05:30:29;24.83;;;17.58;;
13171;SDS011;6651;53.200;10.432;2022-12-18T05:32:55;25.73;;;17.83;;
13171;SDS011;6651;53.200;10.432;2022-12-18T05:35:21;26.60;;;17.55;;
13171;SDS011;6651;53.200;10.432;2022-12-18T05:37:46;27.85;;;17.92;;
13171;SDS011;6651;53.200;10.432;2022-12-18T05:40:12;26.30;;;17.52;;
13171;SDS011;6651;53.200;10.432;2022-12-18T05:42:38;26.30;;;17.98;;
13171;SDS011;6651;53.200;10.432;2022-12-18T05:45:04;27.73;;;18.50;;
13171;SDS011;6651;53.200;10.432;2022-12-18T05:47:30;22.73;;;17.02;;
13171;SDS011;6651;53.200;10.432;2022-12-18T05:49:56;24.80;;;16.65;;
13171;SDS011;6651;53.200;10.432;2022-12-18T05:52:22;26.27;;;17.30;;
13171;SDS011;6651;53.200;10.432;2022-12-18T05:54:47;24.02;;;16.98;;
13171;SDS011;6651;53.200;10.432;2022-12-18T05:57:13;26.70;;;17.75;;
13171;SDS011;6651;53.200;10.432;2022-12-18T05:59:39;27.45;;;17.48;;
13171;SDS011;6651;53.200;10.432;2022-12-18T06:02:04;26.98;;;16.85;;
13171;SDS011;6651;53.200;10.432;2022-12-18T06:04:30;27.98;;;17.70;;
13171;SDS011;6651;53.200;10.432;2022-12-18T06:06:55;24.88;;;17.35;;
13171;SDS011;6651;53.200;10.432;2022-12-18T06:09:21;25.65;;;17.25;;
13171;SDS011;6651;53.200;10.432;2022-12-18T06:11:47;25.75;;;17.40;;
13171;SDS011;6651;53.200;10.432;2022-12-18T06:14:12;23.85;;;16.35;;
13171;SDS011;6651;53.200;10.432;2022-12-18T06:16:38;24.75;;;16.98;;
13171;SDS011;6651;53.200;10.432;2022-12-18T06:19:04;27.35;;;17.58;;
13171;SDS011;6651;53.200;10.432;2022-12-18T06:21:31;23.67;;;16.40;;
13171;SDS011;6651;53.200;10.432;2022-12-18T06:23:57;26.10;;;17.58;;
13171;SDS011;6651;53.200;10.432;2022-12-18T06:26:23;25.35;;;17.10;;
13171;SDS011;6651;53.200;10.432;2022-12-18T06:28:49;23.83;;;16.63;;
13171;SDS011;6651;53.200;10.432;2022-12-18T06:31:14;25.67;;;17.38;;
13171;SDS011;6651;53.200;10.432;2022-12-18T06:33:40;26.45;;;17.58;;
13171;SDS011;6651;53.200;10.432;2022-12-18T06:36:07;24.40;;;16.98;;
13171;SDS011;6651;53.200;10.432;2022-12-18T06:38:39;25.67;;;16.88;;
13171;SDS011;6651;53.200;10.432;2022-12-18T06:41:09;27.67;;;17.70;;
13171;SDS011;6651;53.200;10.432;2022-12-18T06:43:37;26.33;;;16.85;;
13171;SDS011;6651;53.200;10.432;2022-12-18T06:46:03;26.30;;;17.42;;
13171;SDS011;6651;53.200;10.432;2022-12-18T06:48:30;27.67;;;18.38;;
13171;SDS011;6651;53.200;10.432;2022-12-18T06:50:56;28.73;;;18.30;;
13171;SDS011;6651;53.200;10.432;2022-12-18T06:53:21;30.30;;;18.27;;
13171;SDS011;6651;53.200;10.432;2022-12-18T06:55:47;25.08;;;17.65;;
13171;SDS011;6651;53.200;10.432;2022-12-18T06:58:13;26.70;;;17.88;;
13171;SDS011;6651;53.200;10.432;2022-12-18T07:00:39;28.13;;;18.10;;
13171;SDS011;6651;53.200;10.432;2022-12-18T07:03:05;30.45;;;18.33;;
13171;SDS011;6651;53.200;10.432;2022-12-18T07:05:31;29.55;;;17.98;;
13171;SDS011;6651;53.200;10.432;2022-12-18T07:07:57;27.42;;;17.90;;
13171;SDS011;6651;53.200;10.432;2022-12-18T07:10:23;27.88;;;17.55;;
13171;SDS011;6651;53.200;10.432;2022-12-18T07:12:49;26.65;;;18.83;;
13171;SDS011;6651;53.200;10.432;2022-12-18T07:15:15;26.83;;;18.10;;
13171;SDS011;6651;53.200;10.432;2022-12-18T07:17:40;28.17;;;18.42;;
13171;SDS011;6651;53.200;10.432;2022-12-18T07:20:06;27.17;;;18.65;;
13171;SDS011;6651;53.200;10.432;2022-12-18T07:22:32;26.90;;;17.98;;
13171;SDS011;6651;53.200;10.432;2022-12-18T07:24:58;26.27;;;18.35;;
13171;SDS011;6651;53.200;10.432;2022-12-18T07:27:23;28.33;;;17.98;;
13171;SDS011;6651;53.200;10.432;2022-12-18T07:29:49;27.58;;;18.73;;
13171;SDS011;6651;53.200;10.432;2022-12-18T07:32:15;26.13;;;17.67;;
13171;SDS011;6651;53.200;10.432;2022-12-18T07:34:40;32.03;;;18.65;;
13171;SDS011;6651;53.200;10.432;2022-12-18T07:37:06;28.27;;;18.15;;
13171;SDS011;6651;53.200;10.432;2022-12-18T07:39:32;29.08;;;18.90;;
13171;SDS011;6651;53.200;10.432;2022-12-18T07:41:57;28.15;;;18.30;;
13171;SDS011;6651;53.200;10.432;2022-12-18T07:44:42;31.08;;;18.73;;
13171;SDS011;6651;53.200;10.432;2022-12-18T07:47:07;29.63;;;18.38;;
13171;SDS011;6651;53.200;10.432;2022-12-18T07:49:33;30.48;;;19.67;;
13171;SDS011;6651;53.200;10.432;2022-12-18T07:51:58;30.63;;;18.02;;
13171;SDS011;6651;53.200;10.432;2022-12-18T07:54:24;29.08;;;18.52;;
13171;SDS011;6651;53.200;10.432;2022-12-18T07:56:50;27.60;;;17.85;;
13171;SDS011;6651;53.200;10.432;2022-12-18T07:59:17;27.65;;;18.30;;
13171;SDS011;6651;53.200;10.432;2022-12-18T08:01:43;28.55;;;18.65;;
13171;SDS011;6651;53.200;10.432;2022-12-18T08:04:08;30.65;;;19.58;;
13171;SDS011;6651;53.200;10.432;2022-12-18T08:06:34;31.17;;;19.58;;
13171;SDS011;6651;53.200;10.432;2022-12-18T08:09:00;28.63;;;19.45;;
13171;SDS011;6651;53.200;10.432;2022-12-18T08:11:26;30.30;;;19.25;;
13171;SDS011;6651;53.200;10.432;2022-12-18T08:13:53;28.25;;;19.20;;
13171;SDS011;6651;53.200;10.432;2022-12-18T08:16:20;28.35;;;18.88;;
13171;SDS011;6651;53.200;10.432;2022-12-18T08:18:46;29.92;;;18.15;;
13171;SDS011;6651;53.200;10.432;2022-12-18T08:21:16;31.52;;;20.38;;
13171;SDS011;6651;53.200;10.432;2022-12-18T08:23:48;29.60;;;20.17;;
13171;SDS011;6651;53.200;10.432;2022-12-18T08:26:14;31.80;;;20.70;;
13171;SDS011;6651;53.200;10.432;2022-12-18T08:28:40;33.45;;;21.45;;
13171;SDS011;6651;53.200;10.432;2022-12-18T08:31:07;34.28;;;20.70;;
13171;SDS011;6651;53.200;10.432;2022-12-18T08:33:33;31.92;;;20.20;;
13171;SDS011;6651;53.200;10.432;2022-12-18T08:36:00;33.20;;;19.92;;
13171;SDS011;6651;53.200;10.432;2022-12-18T08:38:26;30.58;;;20.27;;
13171;SDS011;6651;53.200;10.432;2022-12-18T08:40:59;28.27;;;18.83;;
13171;SDS011;6651;53.200;10.432;2022-12-18T08:43:28;32.67;;;19.85;;
13171;SDS011;6651;53.200;10.432;2022-12-18T08:46:12;28.63;;;19.95;;
13171;SDS011;6651;53.200;10.432;2022-12-18T08:48:41;32.47;;;20.17;;
13171;SDS011;6651;53.200;10.432;2022-12-18T08:51:06;31.25;;;19.27;;
13171;SDS011;6651;53.200;10.432;2022-12-18T08:53:34;30.67;;;19.38;;
13171;SDS011;6651;53.200;10.432;2022-12-18T08:56:00;32.28;;;20.10;;
13171;SDS011;6651;53.200;10.432;2022-12-18T08:58:26;29.75;;;19.00;;
13171;SDS011;6651;53.200;10.432;2022-12-18T09:00:52;31.38;;;19.80;;
13171;SDS011;6651;53.200;10.432;2022-12-18T09:03:19;30.38;;;18.65;;
13171;SDS011;6651;53.200;10.432;2022-12-18T09:05:47;30.55;;;19.02;;
13171;SDS011;6651;53.200;10.432;2022-12-18T09:08:13;28.08;;;18.65;;
13171;SDS011;6651;53.200;10.432;2022-12-18T09:10:42;27.08;;;18.33;;
13171;SDS011;6651;53.200;10.432;2022-12-18T09:13:13;27.58;;;18.50;;
13171;SDS011;6651;53.200;10.432;2022-12-18T09:15:44;28.05;;;19.05;;
13171;SDS011;6651;53.200;10.432;2022-12-18T09:18:11;28.45;;;18.52;;
13171;SDS011;6651;53.200;10.432;2022-12-18T09:20:37;29.45;;;19.15;;
13171;SDS011;6651;53.200;10.432;2022-12-18T09:23:04;28.23;;;18.27;;
13171;SDS011;6651;53.200;10.432;2022-12-18T09:25:30;27.20;;;19.13;;
13171;SDS011;6651;53.200;10.432;2022-12-18T09:28:01;28.85;;;19.27;;
13171;SDS011;6651;53.200;10.432;2022-12-18T09:30:44;30.27;;;19.25;;
13171;SDS011;6651;53.200;10.432;2022-12-18T09:33:11;29.48;;;19.50;;
13171;SDS011;6651;53.200;10.432;2022-12-18T09:35:38;29.30;;;19.55;;
13171;SDS011;6651;53.200;10.432;2022-12-18T09:38:04;30.67;;;18.75;;
13171;SDS011;6651;53.200;10.432;2022-12-18T09:40:35;29.13;;;19.52;;
13171;SDS011;6651;53.200;10.432;2022-12-18T09:43:06;28.77;;;18.80;;
13171;SDS011;6651;53.200;10.432;2022-12-18T09:45:42;29.58;;;19.15;;
13171;SDS011;6651;53.200;10.432;2022-12-18T09:48:16;27.85;;;18.38;;
13171;SDS011;6651;53.200;10.432;2022-12-18T09:50:50;28.95;;;20.25;;
13171;SDS011;6651;53.200;10.432;2022-12-18T09:53:21;28.88;;;19.40;;
13171;SDS011;6651;53.200;10.432;2022-12-18T09:55:50;27.80;;;18.58;;
13171;SDS011;6651;53.200;10.432;2022-12-18T09:58:32;27.75;;;19.85;;
13171;SDS011;6651;53.200;10.432;2022-12-18T10:01:16;25.40;;;17.65;;
13171;SDS011;6651;53.200;10.432;2022-12-18T10:03:47;28.77;;;18.35;;
13171;SDS011;6651;53.200;10.432;2022-12-18T10:06:15;29.20;;;18.98;;
13171;SDS011;6651;53.200;10.432;2022-12-18T10:08:51;31.23;;;19.85;;
13171;SDS011;6651;53.200;10.432;2022-12-18T10:19:54;25.42;;;17.48;;
13171;SDS011;6651;53.200;10.432;2022-12-18T10:22:32;25.80;;;17.55;;
13171;SDS011;6651;53.200;10.432;2022-12-18T10:25:02;27.48;;;18.63;;
13171;SDS011;6651;53.200;10.432;2022-12-18T10:27:29;28.35;;;18.45;;
13171;SDS011;6651;53.200;10.432;2022-12-18T10:29:56;26.88;;;18.05;;
13171;SDS011;6651;53.200;10.432;2022-12-18T10:32:29;26.63;;;18.30;;
13171;SDS011;6651;53.200;10.432;2022-12-18T10:34:56;27.65;;;17.63;;
13171;SDS011;6651;53.200;10.432;2022-12-18T10:37:24;28.63;;;18.55;;
13171;SDS011;6651;53.200;10.432;2022-12-18T10:42:40;24.55;;;17.67;;
13171;SDS011;6651;53.200;10.432;2022-12-18T10:47:43;23.25;;;16.60;;
13171;SDS011;6651;53.200;10.432;2022-12-18T10:50:23;23.80;;;16.60;;
13171;SDS011;6651;53.200;10.432;2022-12-18T10:52:57;26.90;;;16.98;;
13171;SDS011;6651;53.200;10.432;2022-12-18T10:55:27;25.45;;;16.70;;
13171;SDS011;6651;53.200;10.432;2022-12-18T10:58:16;24.73;;;16.02;;
13171;SDS011;6651;53.200;10.432;2022-12-18T11:01:05;27.95;;;17.52;;
13171;SDS011;6651;53.200;10.432;2022-12-18T11:03:38;24.90;;;16.23;;
13171;SDS011;6651;53.200;10.432;2022-12-18T11:06:11;25.38;;;17.00;;
13171;SDS011;6651;53.200;10.432;2022-12-18T11:08:57;26.48;;;15.90;;
13171;SDS011;6651;53.200;10.432;2022-12-18T11:11:30;24.42;;;16.98;;
13171;SDS011;6651;53.200;10.432;2022-12-18T11:14:02;24.15;;;16.55;;
13171;SDS011;6651;53.200;10.432;2022-12-18T11:16:34;25.65;;;17.40;;
13171;SDS011;6651;53.200;10.432;2022-12-18T11:21:43;25.83;;;17.00;;
13171;SDS011;6651;53.200;10.432;2022-12-18T11:24:18;27.98;;;18.00;;
13171;SDS011;6651;53.200;10.432;2022-12-18T11:26:47;28.17;;;17.55;;
13171;SDS011;6651;53.200;10.432;2022-12-18T11:29:29;28.20;;;18.05;;
13171;SDS011;6651;53.200;10.432;2022-12-18T11:37:54;25.73;;;17.38;;
13171;SDS011;6651;53.200;10.432;2022-12-18T11:40:30;26.15;;;17.40;;
13171;SDS011;6651;53.200;10.432;2022-12-18T11:43:11;26.67;;;17.20;;
13171;SDS011;6651;53.200;10.432;2022-12-18T11:45:52;29.75;;;18.85;;
13171;SDS011;6651;53.200;10.432;2022-12-18T11:48:22;23.60;;;16.70;;
13171;SDS011;6651;53.200;10.432;2022-12-18T11:50:59;25.80;;;16.60;;
13171;SDS011;6651;53.200;10.432;2022-12-18T11:53:28;24.88;;;16.65;;
13171;SDS011;6651;53.200;10.432;2022-12-18T12:04:38;24.67;;;16.48;;
13171;SDS011;6651;53.200;10.432;2022-12-18T12:10:32;24.92;;;16.73;;
13171;SDS011;6651;53.200;10.432;2022-12-18T12:18:58;27.42;;;16.50;;
13171;SDS011;6651;53.200;10.432;2022-12-18T12:21:42;23.85;;;16.15;;
13171;SDS011;6651;53.200;10.432;2022-12-18T12:24:30;24.77;;;16.35;;
13171;SDS011;6651;53.200;10.432;2022-12-18T12:30:00;28.65;;;17.38;;
13171;SDS011;6651;53.200;10.432;2022-12-18T12:35:44;26.05;;;17.10;;
13171;SDS011;6651;53.200;10.432;2022-12-18T12:38:30;26.08;;;16.80;;
13171;SDS011;6651;53.200;10.432;2022-12-18T12:41:09;25.95;;;17.00;;
13171;SDS011;6651;53.200;10.432;2022-12-18T12:43:58;27.40;;;16.80;;
13171;SDS011;6651;53.200;10.432;2022-12-18T12:46:27;25.95;;;16.75;;
13171;SDS011;6651;53.200;10.432;2022-12-18T12:48:56;28.30;;;17.95;;
13171;SDS011;6651;53.200;10.432;2022-12-18T12:51:28;28.15;;;17.90;;
13171;SDS011;6651;53.200;10.432;2022-12-18T12:53:57;29.60;;;18.42;;
13171;SDS011;6651;53.200;10.432;2022-12-18T12:56:25;29.40;;;18.00;;
13171;SDS011;6651;53.200;10.432;2022-12-18T12:59:04;32.15;;;19.45;;
13171;SDS011;6651;53.200;10.432;2022-12-18T13:04:35;31.13;;;19.35;;
13171;SDS011;6651;53.200;10.432;2022-12-18T13:12:58;31.42;;;20.40;;
13171;SDS011;6651;53.200;10.432;2022-12-18T13:15:33;34.35;;;19.67;;
13171;SDS011;6651;53.200;10.432;2022-12-18T13:20:38;29.83;;;19.30;;
13171;SDS011;6651;53.200;10.432;2022-12-18T13:25:49;31.08;;;19.20;;
13171;SDS011;6651;53.200;10.432;2022-12-18T13:28:16;33.22;;;20.25;;
13171;SDS011;6651;53.200;10.432;2022-12-18T13:30:50;30.90;;;19.50;;
13171;SDS011;6651;53.200;10.432;2022-12-18T13:38:46;35.25;;;19.58;;
13171;SDS011;6651;53.200;10.432;2022-12-18T13:43:49;33.55;;;19.75;;
13171;SDS011;6651;53.200;10.432;2022-12-18T13:49:01;37.05;;;20.73;;
13171;SDS011;6651;53.200;10.432;2022-12-18T13:51:31;33.95;;;20.50;;
13171;SDS011;6651;53.200;10.432;2022-12-18T13:56:28;31.00;;;19.67;;
13171;SDS011;6651;53.200;10.432;2022-12-18T13:59:05;34.10;;;19.65;;
13171;SDS011;6651;53.200;10.432;2022-12-18T14:01:48;32.90;;;19.95;;
13171;SDS011;6651;53.200;10.432;2022-12-18T14:04:21;33.15;;;21.02;;
13171;SDS011;6651;53.200;10.432;2022-12-18T14:07:01;31.52;;;19.80;;
13171;SDS011;6651;53.200;10.432;2022-12-18T14:09:28;36.70;;;20.00;;
13171;SDS011;6651;53.200;10.432;2022-12-18T14:12:16;32.88;;;19.85;;
13171;SDS011;6651;53.200;10.432;2022-12-18T14:15:06;33.13;;;19.92;;
13171;SDS011;6651;53.200;10.432;2022-12-18T14:17:52;32.67;;;19.23;;
13171;SDS011;6651;53.200;10.432;2022-12-18T14:20:20;32.75;;;20.70;;
13171;SDS011;6651;53.200;10.432;2022-12-18T14:22:47;35.17;;;21.27;;
13171;SDS011;6651;53.200;10.432;2022-12-18T14:25:15;33.03;;;19.58;;
13171;SDS011;6651;53.200;10.432;2022-12-18T14:27:47;34.40;;;20.55;;
13171;SDS011;6651;53.200;10.432;2022-12-18T14:33:39;32.83;;;19.70;;
13171;SDS011;6651;53.200;10.432;2022-12-18T14:35:58;31.95;;;19.08;;
13171;SDS011;6651;53.200;10.432;2022-12-18T14:41:11;32.00;;;19.88;;
13171;SDS011;6651;53.200;10.432;2022-12-18T14:43:39;33.75;;;20.35;;
13171;SDS011;6651;53.200;10.432;2022-12-18T14:49:01;30.52;;;18.50;;
13171;SDS011;6651;53.200;10.432;2022-12-18T14:51:42;31.40;;;17.95;;
13171;SDS011;6651;53.200;10.432;2022-12-18T14:54:17;34.25;;;19.20;;
13171;SDS011;6651;53.200;10.432;2022-12-18T14:56:45;29.23;;;18.50;;
13171;SDS011;6651;53.200;10.432;2022-12-18T14:59:13;33.83;;;20.02;;
13171;SDS011;6651;53.200;10.432;2022-12-18T15:04:24;32.20;;;18.55;;
13171;SDS011;6651;53.200;10.432;2022-12-18T15:09:34;30.83;;;18.08;;
13171;SDS011;6651;53.200;10.432;2022-12-18T15:12:00;28.58;;;18.25;;
13171;SDS011;6651;53.200;10.432;2022-12-18T15:16:56;31.20;;;18.58;;
13171;SDS011;6651;53.200;10.432;2022-12-18T15:19:26;28.83;;;18.40;;
13171;SDS011;6651;53.200;10.432;2022-12-18T15:22:02;29.15;;;18.73;;
13171;SDS011;6651;53.200;10.432;2022-12-18T15:24:30;28.15;;;17.33;;
13171;SDS011;6651;53.200;10.432;2022-12-18T15:26:57;28.08;;;18.20;;
13171;SDS011;6651;53.200;10.432;2022-12-18T15:29:23;29.15;;;18.42;;
13171;SDS011;6651;53.200;10.432;2022-12-18T15:32:02;28.60;;;18.05;;
13171;SDS011;6651;53.200;10.432;2022-12-18T15:34:30;29.52;;;18.17;;
13171;SDS011;6651;53.200;10.432;2022-12-18T15:36:59;31.05;;;17.90;;
13171;SDS011;6651;53.200;10.432;2022-12-18T15:39:25;28.38;;;17.52;;
13171;SDS011;6651;53.200;10.432;2022-12-18T15:41:51;27.80;;;17.83;;
13171;SDS011;6651;53.200;10.432;2022-12-18T15:44:35;28.30;;;18.60;;
13171;SDS011;6651;53.200;10.432;2022-12-18T15:47:00;27.67;;;17.45;;
13171;SDS011;6651;53.200;10.432;2022-12-18T15:49:26;30.88;;;18.08;;
13171;SDS011;6651;53.200;10.432;2022-12-18T15:51:52;29.25;;;18.50;;
13171;SDS011;6651;53.200;10.432;2022-12-18T15:54:21;28.13;;;17.85;;
13171;SDS011;6651;53.200;10.432;2022-12-18T15:57:10;27.85;;;17.58;;
13171;SDS011;6651;53.200;10.432;2022-12-18T15:59:49;28.63;;;18.05;;
13171;SDS011;6651;53.200;10.432;2022-12-18T16:02:23;27.77;;;22.92;;
13171;SDS011;6651;53.200;10.432;2022-12-18T16:04:50;27.63;;;19.10;;
13171;SDS011;6651;53.200;10.432;2022-12-18T16:07:17;26.98;;;17.95;;
13171;SDS011;6651;53.200;10.432;2022-12-18T16:09:43;29.58;;;18.17;;
13171;SDS011;6651;53.200;10.432;2022-12-18T16:12:17;30.75;;;17.95;;
13171;SDS011;6651;53.200;10.432;2022-12-18T16:14:46;27.52;;;17.90;;
13171;SDS011;6651;53.200;10.432;2022-12-18T16:17:12;24.98;;;17.10;;
13171;SDS011;6651;53.200;10.432;2022-12-18T16:19:39;26.08;;;16.52;;
13171;SDS011;6651;53.200;10.432;2022-12-18T16:22:14;26.92;;;17.05;;
13171;SDS011;6651;53.200;10.432;2022-12-18T16:27:46;25.25;;;17.27;;
13171;SDS011;6651;53.200;10.432;2022-12-18T16:30:16;24.10;;;15.98;;
13171;SDS011;6651;53.200;10.432;2022-12-18T16:32:51;22.95;;;15.50;;
13171;SDS011;6651;53.200;10.432;2022-12-18T16:35:34;23.27;;;15.85;;
13171;SDS011;6651;53.200;10.432;2022-12-18T16:38:26;24.63;;;15.65;;
13171;SDS011;6651;53.200;10.432;2022-12-18T16:40:51;21.58;;;14.77;;
13171;SDS011;6651;53.200;10.432;2022-12-18T16:43:36;24.55;;;15.85;;